Starvip — 9HII8 — position and weather

sailwx.info

Track history (hours):
 
Tides and Currents Weather Stations Pressure Air Temp Water Temp Dewpoint Dewpoint Depression Visibility Wind Speed Wind Dir Waves Ship Positions

Starvip

Last reported at 2018-May-14 13:18 UTC. Time now 2018-May-26 14:08 UTC.
Position N 36°45' E 015°18'.
Warning: this ship's position is 12 days out of date.

Length 147 m; draft 9 m.

Type: Cargo ship. MMSI: 256007000.

Date/timePositionNaut miles runAvg speedWind from/ knotsBaromVisibWave heightAir tempDewpointWater temp
2018-May-14 13:18N 36°45' E 015°18'712.6
2018-May-14 12:45N 36°39' E 015°13'312.3
2018-May-14 12:30N 36°37' E 015°10'1112.4
2018-May-14 11:35N 36°36' E 014°56'112.7
2018-May-14 11:30N 36°36' E 014°55'613.1
2018-May-14 11:01N 36°37' E 014°47'713.8
2018-May-14 10:29N 36°38' E 014°38'613.6
2018-May-14 10:00N 36°40' E 014°30'613.1
2018-May-14 09:30N 36°42' E 014°22'612.7
2018-May-14 09:00N 36°43' E 014°14'612.5
2018-May-14 08:30N 36°45' E 014°07'612.4
2018-May-14 08:00N 36°46' E 013°59'612.4
2018-May-14 07:30N 36°48' E 013°52'612.4
2018-May-14 07:00N 36°50' E 013°44'2212.4
2018-May-14 05:13N 36°55' E 013°17'  
2018-May-11 07:46N 36°00' W 005°13'415.0
2018-May-11 07:30N 35°59' W 005°18'714.9
2018-May-11 07:01N 35°57' W 005°27'28510.3
2018-May-10 03:27N 38°56' W 010°07'612.4
2018-May-10 03:00N 39°02' W 010°07'612.3
2018-May-10 02:30N 39°08' W 010°06'30510.4
2018-May-08 21:08N 43°53' W 007°43'111.9
2018-May-08 21:00N 43°52' W 007°41'612.0
2018-May-08 20:30N 43°52' W 007°33'611.9
2018-May-08 20:00N 43°50' W 007°25'611.9
2018-May-08 19:28N 43°49' W 007°16'  
2018-May-05 12:33N 43°37' W 005°58'2 5.0
2018-May-05 12:15N 43°39' W 005°59'0 0.8
2018-May-05 11:50N 43°38' W 005°58'3 7.8
2018-May-05 11:28N 43°41' W 005°58'  
Track history (hours):
 
Tides and Currents Weather Stations Pressure Air Temp Water Temp Dewpoint Dewpoint Depression Visibility Wind Speed Wind Dir Waves Ship Positions

Starvip

Last reported at 2018-May-14 13:18 UTC. Time now 2018-May-26 14:08 UTC.
Position N 36°45' E 015°18'.
Warning: this ship's position is 12 days out of date.

Length 147 m; draft 9 m.

Type: Cargo ship. MMSI: 256007000.

Date/timePositionNaut miles runAvg speedWind from/ knotsBaromVisibWave heightAir tempDewpointWater temp
2018-May-14 13:18N 36°45' E 015°18'712.6
2018-May-14 12:45N 36°39' E 015°13'312.3
2018-May-14 12:30N 36°37' E 015°10'1112.4
2018-May-14 11:35N 36°36' E 014°56'112.7
2018-May-14 11:30N 36°36' E 014°55'613.1
2018-May-14 11:01N 36°37' E 014°47'713.8
2018-May-14 10:29N 36°38' E 014°38'613.6
2018-May-14 10:00N 36°40' E 014°30'613.1
2018-May-14 09:30N 36°42' E 014°22'612.7
2018-May-14 09:00N 36°43' E 014°14'612.5
2018-May-14 08:30N 36°45' E 014°07'612.4
2018-May-14 08:00N 36°46' E 013°59'612.4
2018-May-14 07:30N 36°48' E 013°52'612.4
2018-May-14 07:00N 36°50' E 013°44'2212.4
2018-May-14 05:13N 36°55' E 013°17'  
2018-May-11 07:46N 36°00' W 005°13'415.0
2018-May-11 07:30N 35°59' W 005°18'714.9
2018-May-11 07:01N 35°57' W 005°27'28510.3
2018-May-10 03:27N 38°56' W 010°07'612.4
2018-May-10 03:00N 39°02' W 010°07'612.3
2018-May-10 02:30N 39°08' W 010°06'30510.4
2018-May-08 21:08N 43°53' W 007°43'111.9
2018-May-08 21:00N 43°52' W 007°41'612.0
2018-May-08 20:30N 43°52' W 007°33'611.9
2018-May-08 20:00N 43°50' W 007°25'611.9
2018-May-08 19:28N 43°49' W 007°16'  
2018-May-05 12:33N 43°37' W 005°58'2 5.0
2018-May-05 12:15N 43°39' W 005°59'0 0.8
2018-May-05 11:50N 43°38' W 005°58'3 7.8
2018-May-05 11:28N 43°41' W 005°58'  

Dump ship's entire track history